METAR Data
IDs: Format: Raw Decoded Include TAF

Data at: 2200 UTC 02 Aug 2021

SBSP 022200Z 19010KT 9999 SCT006 OVC011 15/12 Q1026